Terminal Aerodrome Forecast
Issued by NWS Grand Forks, ND

Home | Current Version | Previous Version | Text Only | Print | Product List | Glossary On
Versions: 1 2 3 4 5 6 7 8 9 10 11 12 13 14 15
976
FTUS43 KFGF 242320
TAFFAR
TAF
KFAR 242320Z 2500/2524 28015KT P6SM SCT250
     FM250300 28006KT P6SM FEW250
     FM251700 24004KT P6SM SKC=

USA.gov is the U.S. government's official web portal to all federal, state and local government web resources and services.